KRBG/RBG METAR and TAF weather

Enter ICAO airport designator
Station Type Date Time Source
KRBG METAR 2022/06/28 09:53 UTC NOAA

KRBG 280953Z AUTO 36006KT 10SM CLR 14/09 A3012 RMK AO2 SLP196 T01440094


Station Type Date Time Source
KRBG Decoded METAR 2022/06/28 09:53 UTC NOAA

ROSEBURG REGIONAL AIRPORT, OR, United States (KRBG) 43-14N 123-21W 154M
Jun 28, 2022 - 05:53 AM EDT / 2022.06.28 0953 UTC
Wind: from the N (360 degrees) at 7 MPH (6 KT):0
Visibility: 10 mile(s):0
Sky conditions: clear
Temperature: 57.9 F (14.4 C)
Dew Point: 48.9 F (9.4 C)
Relative Humidity: 71%
Pressure (altimeter): 30.12 in. Hg (1019 hPa)
ob: KRBG 280953Z AUTO 36006KT 10SM CLR 14/09 A3012 RMK AO2 SLP196 T01440094
cycle: 10

Station Type Date Time Source
KRBG TAF 2022/06/28 06:34 UTC NOAA

TAF KRBG 280531Z 2806/2906 VRB03KT P6SM SKC
FM281800 34004KT P6SM SKC
FM290000 34008G14KT P6SM SKC
FM290300 34006KT P6SM SKC

Example: see airport list